AOJ12 LDSP-LOWW
Flight info
| Callsign | AOJ12 |
|---|---|
| Flight time | 1h 11m |
| Altitude | 40000 |
| Route | UNIPA DCT OBUTI OBUTI2W |
| Aircraft | CL60/M-SBDE1E2E3FGHIJ1J4J5J7M3RWXYZ/LB1V1D1 |
Departure
| Time | 2026-04-24 15:49 |
|---|---|
| Airport | Split Saint Jerome Airport (LDSP) |
Arrival
| Time | 2026-04-24 17:00 |
|---|---|
| Airport | Vienna International Airport (LOWW) |
| Time | Latitude | Longitude | Altitude | Speed | Heading |
|---|---|---|---|---|---|
| 2026-04-24 15:17 | 43.53572 | 16.29516 | 62 ft | 0 kts | 118° |
| 2026-04-24 15:44 | 43.53582 | 16.29527 | 62 ft | 4 kts | 356° |
| 2026-04-24 15:44 | 43.53596 | 16.29528 | 62 ft | 4 kts | 10° |
| 2026-04-24 15:44 | 43.53632 | 16.29564 | 62 ft | 8 kts | 49° |
| 2026-04-24 15:45 | 43.53674 | 16.29642 | 62 ft | 11 kts | 52° |
| 2026-04-24 15:45 | 43.53731 | 16.29743 | 61 ft | 15 kts | 52° |
| 2026-04-24 15:45 | 43.53801 | 16.29872 | 61 ft | 18 kts | 52° |
| 2026-04-24 15:45 | 43.53859 | 16.29977 | 60 ft | 13 kts | 53° |
| 2026-04-24 15:46 | 43.53899 | 16.30047 | 60 ft | 7 kts | 44° |
| 2026-04-24 15:46 | 43.53914 | 16.30060 | 61 ft | 0 kts | 17° |
| 2026-04-24 15:46 | 43.53930 | 16.30066 | 61 ft | 8 kts | 15° |
| 2026-04-24 15:47 | 43.54015 | 16.30100 | 61 ft | 15 kts | 15° |
| 2026-04-24 15:47 | 43.54107 | 16.30185 | 61 ft | 18 kts | 54° |
| 2026-04-24 15:47 | 43.54197 | 16.30343 | 60 ft | 23 kts | 51° |
| 2026-04-24 15:47 | 43.54312 | 16.30549 | 57 ft | 29 kts | 52° |
| 2026-04-24 15:48 | 43.54417 | 16.30731 | 55 ft | 11 kts | 34° |
| 2026-04-24 15:48 | 43.54431 | 16.30763 | 55 ft | 5 kts | 189° |
| 2026-04-24 15:48 | 43.54401 | 16.30708 | 56 ft | 9 kts | 232° |
| 2026-04-24 15:48 | 43.54190 | 16.30329 | 60 ft | 103 kts | 233° |
| 2026-04-24 15:49 | 43.53585 | 16.29260 | 352 ft | 162 kts | 235° |
| 2026-04-24 15:49 | 43.52888 | 16.28057 | 1339 ft | 173 kts | 234° |
| 2026-04-24 15:49 | 43.52021 | 16.26594 | 1917 ft | 221 kts | 234° |
| 2026-04-24 15:49 | 43.50984 | 16.24835 | 2689 ft | 255 kts | 233° |
| 2026-04-24 15:50 | 43.49833 | 16.22880 | 3533 ft | 271 kts | 233° |
| 2026-04-24 15:50 | 43.48638 | 16.20873 | 4430 ft | 277 kts | 232° |
| 2026-04-24 15:50 | 43.47445 | 16.18774 | 5328 ft | 281 kts | 240° |
| 2026-04-24 15:50 | 43.46798 | 16.16313 | 6279 ft | 281 kts | 265° |
| 2026-04-24 15:51 | 43.46926 | 16.13635 | 7284 ft | 281 kts | 289° |
| 2026-04-24 15:51 | 43.47818 | 16.11294 | 8250 ft | 281 kts | 314° |
| 2026-04-24 15:51 | 43.49279 | 16.09580 | 9248 ft | 280 kts | 327° |
| 2026-04-24 15:51 | 43.50848 | 16.07961 | 10270 ft | 284 kts | 327° |
| 2026-04-24 15:52 | 43.52417 | 16.06336 | 11294 ft | 288 kts | 327° |
| 2026-04-24 15:52 | 43.54013 | 16.04681 | 12299 ft | 294 kts | 327° |
| 2026-04-24 15:52 | 43.55777 | 16.03278 | 13071 ft | 296 kts | 345° |
| 2026-04-24 15:52 | 43.57812 | 16.02913 | 13910 ft | 301 kts | 7° |
| 2026-04-24 15:53 | 43.59880 | 16.03456 | 14729 ft | 315 kts | 15° |
| 2026-04-24 15:53 | 43.62077 | 16.04145 | 15471 ft | 329 kts | 14° |
| 2026-04-24 15:53 | 43.64346 | 16.04847 | 16229 ft | 338 kts | 14° |
| 2026-04-24 15:53 | 43.66675 | 16.05566 | 17003 ft | 342 kts | 14° |
| 2026-04-24 15:54 | 43.68992 | 16.06282 | 17758 ft | 346 kts | 14° |
| 2026-04-24 15:54 | 43.71318 | 16.07152 | 18534 ft | 347 kts | 23° |
| 2026-04-24 15:54 | 43.73365 | 16.08891 | 19292 ft | 350 kts | 41° |
| 2026-04-24 15:54 | 43.75135 | 16.11205 | 20052 ft | 355 kts | 44° |
| 2026-04-24 15:55 | 43.76920 | 16.13579 | 20790 ft | 358 kts | 44° |
| 2026-04-24 15:55 | 43.78721 | 16.15968 | 21551 ft | 360 kts | 44° |
| 2026-04-24 15:55 | 43.80523 | 16.18361 | 22317 ft | 363 kts | 44° |
| 2026-04-24 15:55 | 43.82352 | 16.20791 | 23072 ft | 367 kts | 44° |
| 2026-04-24 15:56 | 43.84215 | 16.23269 | 23649 ft | 374 kts | 44° |
| 2026-04-24 15:56 | 43.86129 | 16.25816 | 24061 ft | 381 kts | 44° |
| 2026-04-24 15:56 | 43.88034 | 16.28354 | 24319 ft | 382 kts | 44° |
| 2026-04-24 15:56 | 43.89959 | 16.30919 | 24583 ft | 379 kts | 44° |
| 2026-04-24 15:57 | 43.91839 | 16.33429 | 24835 ft | 377 kts | 44° |
| 2026-04-24 15:57 | 43.93754 | 16.35987 | 25065 ft | 378 kts | 44° |
| 2026-04-24 15:57 | 43.95018 | 16.37678 | 25096 ft | 387 kts | 44° |
| 2026-04-24 15:57 | 43.97678 | 16.41238 | 25095 ft | 404 kts | 44° |
| 2026-04-24 15:58 | 43.99712 | 16.43934 | 25092 ft | 408 kts | 42° |
| 2026-04-24 15:58 | 44.02035 | 16.46184 | 25098 ft | 409 kts | 29° |
| 2026-04-24 15:58 | 44.04718 | 16.47545 | 25102 ft | 411 kts | 14° |
| 2026-04-24 15:58 | 44.07576 | 16.47890 | 25096 ft | 415 kts | 1° |
| 2026-04-24 15:59 | 44.10457 | 16.47658 | 25091 ft | 416 kts | 359° |
| 2026-04-24 15:59 | 44.13310 | 16.47410 | 25094 ft | 416 kts | 359° |
| 2026-04-24 15:59 | 44.16181 | 16.47164 | 25100 ft | 416 kts | 359° |
| 2026-04-24 15:59 | 44.19093 | 16.46914 | 25099 ft | 416 kts | 359° |
| 2026-04-24 16:00 | 44.22029 | 16.46662 | 25090 ft | 416 kts | 359° |
| 2026-04-24 16:00 | 44.24927 | 16.46413 | 25090 ft | 416 kts | 359° |
| 2026-04-24 16:00 | 44.27829 | 16.46163 | 25095 ft | 415 kts | 359° |
| 2026-04-24 16:00 | 44.30730 | 16.45913 | 25095 ft | 416 kts | 359° |
| 2026-04-24 16:01 | 44.33617 | 16.45665 | 25093 ft | 415 kts | 359° |
| 2026-04-24 16:01 | 44.36495 | 16.45417 | 25092 ft | 415 kts | 359° |
| 2026-04-24 16:01 | 44.39384 | 16.45168 | 25092 ft | 415 kts | 359° |
| 2026-04-24 16:01 | 44.42276 | 16.44918 | 25097 ft | 415 kts | 359° |
| 2026-04-24 16:02 | 44.45186 | 16.44666 | 25094 ft | 416 kts | 359° |
| 2026-04-24 16:02 | 44.48079 | 16.44416 | 25091 ft | 416 kts | 359° |
| 2026-04-24 16:02 | 44.50966 | 16.44166 | 25088 ft | 416 kts | 359° |
| 2026-04-24 16:02 | 44.53856 | 16.43915 | 25086 ft | 416 kts | 359° |
| 2026-04-24 16:03 | 44.56737 | 16.43665 | 25088 ft | 416 kts | 359° |
| 2026-04-24 16:03 | 44.59624 | 16.43415 | 25085 ft | 416 kts | 359° |
| 2026-04-24 16:03 | 44.62511 | 16.43163 | 25085 ft | 416 kts | 359° |
| 2026-04-24 16:03 | 44.65389 | 16.42913 | 25090 ft | 416 kts | 359° |
| 2026-04-24 16:04 | 44.68286 | 16.42661 | 25088 ft | 416 kts | 359° |
| 2026-04-24 16:04 | 44.71183 | 16.42408 | 25086 ft | 416 kts | 359° |
| 2026-04-24 16:04 | 44.74087 | 16.42154 | 25079 ft | 416 kts | 359° |
| 2026-04-24 16:04 | 44.77026 | 16.41897 | 25086 ft | 416 kts | 359° |
| 2026-04-24 16:05 | 44.82800 | 16.41392 | 25083 ft | 416 kts | 358° |
| 2026-04-24 16:05 | 44.85703 | 16.41138 | 25077 ft | 416 kts | 358° |
| 2026-04-24 16:06 | 44.91507 | 16.40628 | 25075 ft | 416 kts | 358° |
| 2026-04-24 16:06 | 44.94398 | 16.40374 | 25074 ft | 416 kts | 358° |
| 2026-04-24 16:06 | 45.00204 | 16.39863 | 25074 ft | 416 kts | 358° |
| 2026-04-24 16:07 | 45.03048 | 16.39612 | 25073 ft | 416 kts | 358° |
| 2026-04-24 16:07 | 45.05988 | 16.39352 | 25071 ft | 416 kts | 358° |
| 2026-04-24 16:07 | 45.11820 | 16.38837 | 25071 ft | 416 kts | 358° |
| 2026-04-24 16:08 | 45.14712 | 16.38332 | 25078 ft | 419 kts | 348° |
| 2026-04-24 16:08 | 45.20294 | 16.35734 | 25069 ft | 421 kts | 343° |
| 2026-04-24 16:09 | 45.25865 | 16.33088 | 25071 ft | 421 kts | 343° |
| 2026-04-24 16:09 | 45.28656 | 16.31787 | 25093 ft | 420 kts | 345° |
| 2026-04-24 16:09 | 45.30530 | 16.30958 | 25159 ft | 419 kts | 345° |
| 2026-04-24 16:09 | 45.34247 | 16.29310 | 24858 ft | 426 kts | 345° |
| 2026-04-24 16:10 | 45.42661 | 16.25602 | 22743 ft | 411 kts | 345° |
| 2026-04-24 16:11 | 45.47966 | 16.22999 | 21373 ft | 399 kts | 342° |
| 2026-04-24 16:11 | 45.50548 | 16.21779 | 20702 ft | 392 kts | 345° |
| 2026-04-24 16:11 | 45.53114 | 16.20592 | 20198 ft | 382 kts | 344° |
| 2026-04-24 16:12 | 45.58149 | 16.18157 | 19179 ft | 384 kts | 343° |
| 2026-04-24 16:12 | 45.60666 | 16.16928 | 18670 ft | 381 kts | 343° |
| 2026-04-24 16:12 | 45.65626 | 16.14501 | 17671 ft | 375 kts | 343° |
| 2026-04-24 16:13 | 45.68067 | 16.13305 | 17174 ft | 371 kts | 343° |
| 2026-04-24 16:13 | 45.72918 | 16.10925 | 16197 ft | 364 kts | 343° |
| 2026-04-24 16:14 | 45.77629 | 16.08610 | 15247 ft | 356 kts | 342° |
| 2026-04-24 16:14 | 45.79977 | 16.07455 | 14774 ft | 353 kts | 342° |
| 2026-04-24 16:14 | 45.84575 | 16.05189 | 13845 ft | 343 kts | 342° |
| 2026-04-24 16:15 | 45.86064 | 16.04453 | 13543 ft | 336 kts | 342° |
| 2026-04-24 16:15 | 45.91049 | 16.01991 | 12542 ft | 315 kts | 342° |
| 2026-04-24 16:16 | 45.95059 | 16.00007 | 11731 ft | 301 kts | 342° |
| 2026-04-24 16:16 | 45.97013 | 15.99039 | 11332 ft | 294 kts | 342° |
| 2026-04-24 16:17 | 46.02643 | 15.96246 | 10200 ft | 278 kts | 342° |
| 2026-04-24 16:17 | 46.06237 | 15.94460 | 9469 ft | 269 kts | 342° |
| 2026-04-24 16:18 | 46.09741 | 15.92716 | 8745 ft | 262 kts | 341° |
| 2026-04-24 16:18 | 46.13211 | 15.90987 | 8042 ft | 264 kts | 341° |
| 2026-04-24 16:18 | 46.14943 | 15.90123 | 7699 ft | 264 kts | 341° |
| 2026-04-24 16:19 | 46.18412 | 15.88391 | 6992 ft | 264 kts | 340° |
| 2026-04-24 16:19 | 46.20143 | 15.87526 | 6646 ft | 264 kts | 340° |
| 2026-04-24 16:20 | 46.23626 | 15.85784 | 5942 ft | 264 kts | 340° |
| 2026-04-24 16:20 | 46.27066 | 15.84060 | 5247 ft | 263 kts | 340° |
| 2026-04-24 16:20 | 46.28791 | 15.83195 | 4895 ft | 262 kts | 340° |
| 2026-04-24 16:21 | 46.32241 | 15.81464 | 4196 ft | 263 kts | 340° |
| 2026-04-24 16:21 | 46.33967 | 15.80596 | 3845 ft | 262 kts | 340° |
| 2026-04-24 16:21 | 46.35685 | 15.79732 | 3500 ft | 261 kts | 340° |
| 2026-04-24 16:22 | 46.37368 | 15.78734 | 3099 ft | 258 kts | 330° |
| 2026-04-24 16:22 | 46.40255 | 15.76094 | 2445 ft | 235 kts | 326° |
| 2026-04-24 16:22 | 46.41533 | 15.74872 | 2158 ft | 218 kts | 327° |
| 2026-04-24 16:23 | 46.42718 | 15.73728 | 1865 ft | 193 kts | 327° |
| 2026-04-24 16:23 | 46.43752 | 15.72728 | 1708 ft | 162 kts | 325° |
| 2026-04-24 16:23 | 46.44659 | 15.71849 | 1461 ft | 152 kts | 328° |
| 2026-04-24 16:24 | 46.46347 | 15.70198 | 1065 ft | 141 kts | 324° |
| 2026-04-24 16:24 | 46.47148 | 15.69420 | 890 ft | 136 kts | 327° |
| 2026-04-24 16:24 | 46.47872 | 15.68717 | 886 ft | 114 kts | 327° |
| 2026-04-24 16:24 | 46.48715 | 15.67902 | 1059 ft | 170 kts | 325° |
| 2026-04-24 16:25 | 46.49808 | 15.66910 | 1768 ft | 204 kts | 336° |
| 2026-04-24 16:25 | 46.51238 | 15.66415 | 2573 ft | 233 kts | 357° |
| 2026-04-24 16:25 | 46.52871 | 15.66817 | 2488 ft | 238 kts | 30° |
| 2026-04-24 16:26 | 46.54811 | 15.70257 | 2400 ft | 205 kts | 58° |
| 2026-04-24 16:26 | 46.55577 | 15.71917 | 2381 ft | 194 kts | 58° |
| 2026-04-24 16:26 | 46.57050 | 15.75150 | 2542 ft | 195 kts | 64° |
| 2026-04-24 16:27 | 46.57293 | 15.77150 | 2669 ft | 211 kts | 103° |
| 2026-04-24 16:27 | 46.56575 | 15.78983 | 2818 ft | 213 kts | 141° |
| 2026-04-24 16:27 | 46.55217 | 15.79946 | 2985 ft | 230 kts | 160° |
| 2026-04-24 16:27 | 46.53687 | 15.80659 | 3029 ft | 227 kts | 162° |
| 2026-04-24 16:28 | 46.52228 | 15.81308 | 3037 ft | 209 kts | 162° |
| 2026-04-24 16:28 | 46.50854 | 15.81764 | 2931 ft | 199 kts | 181° |
| 2026-04-24 16:28 | 46.48344 | 15.80740 | 2560 ft | 175 kts | 199° |
| 2026-04-24 16:29 | 46.47257 | 15.79988 | 2307 ft | 174 kts | 218° |
| 2026-04-24 16:29 | 46.46503 | 15.78646 | 2070 ft | 173 kts | 236° |
| 2026-04-24 16:29 | 46.45395 | 15.75893 | 1663 ft | 138 kts | 241° |
| 2026-04-24 16:30 | 46.45475 | 15.73169 | 1517 ft | 140 kts | 290° |
| 2026-04-24 16:30 | 46.45800 | 15.71829 | 1401 ft | 142 kts | 286° |
| 2026-04-24 16:30 | 46.46188 | 15.70501 | 1225 ft | 143 kts | 301° |
| 2026-04-24 16:31 | 46.46962 | 15.69601 | 933 ft | 141 kts | 326° |
| 2026-04-24 16:31 | 46.47738 | 15.68859 | 888 ft | 122 kts | 327° |
| 2026-04-24 16:31 | 46.48533 | 15.68099 | 1176 ft | 157 kts | 326° |
| 2026-04-24 16:31 | 46.49545 | 15.67145 | 1740 ft | 186 kts | 327° |
| 2026-04-24 16:32 | 46.50310 | 15.66478 | 2221 ft | 206 kts | 334° |
| 2026-04-24 16:32 | 46.52398 | 15.66054 | 3157 ft | 251 kts | 4° |
| 2026-04-24 16:32 | 46.54048 | 15.66927 | 3673 ft | 259 kts | 43° |
| 2026-04-24 16:32 | 46.54839 | 15.69057 | 3810 ft | 238 kts | 81° |
| 2026-04-24 16:33 | 46.54658 | 15.71433 | 3459 ft | 236 kts | 113° |
| 2026-04-24 16:33 | 46.53719 | 15.73276 | 3193 ft | 233 kts | 143° |
| 2026-04-24 16:33 | 46.52263 | 15.74330 | 2785 ft | 234 kts | 159° |
| 2026-04-24 16:33 | 46.50716 | 15.75170 | 2235 ft | 242 kts | 160° |
| 2026-04-24 16:34 | 46.49123 | 15.75952 | 1826 ft | 241 kts | 157° |
| 2026-04-24 16:34 | 46.47713 | 15.77091 | 1819 ft | 222 kts | 149° |
| 2026-04-24 16:34 | 46.46314 | 15.77571 | 1798 ft | 204 kts | 189° |
| 2026-04-24 16:34 | 46.45162 | 15.76621 | 1731 ft | 186 kts | 224° |
| 2026-04-24 16:35 | 46.44581 | 15.75122 | 1648 ft | 163 kts | 260° |
| 2026-04-24 16:35 | 46.44758 | 15.73517 | 1527 ft | 162 kts | 289° |
| 2026-04-24 16:35 | 46.45100 | 15.72003 | 1451 ft | 150 kts | 288° |
| 2026-04-24 16:35 | 46.45616 | 15.70769 | 1230 ft | 141 kts | 320° |
| 2026-04-24 16:36 | 46.46458 | 15.70047 | 1053 ft | 140 kts | 333° |
| 2026-04-24 16:36 | 46.47275 | 15.69304 | 885 ft | 139 kts | 327° |
| 2026-04-24 16:36 | 46.48004 | 15.68598 | 887 ft | 113 kts | 326° |
| 2026-04-24 16:36 | 46.48746 | 15.67869 | 903 ft | 169 kts | 327° |
| 2026-04-24 16:37 | 46.49873 | 15.66843 | 1672 ft | 207 kts | 330° |
| 2026-04-24 16:37 | 46.51209 | 15.65768 | 2593 ft | 242 kts | 338° |
| 2026-04-24 16:37 | 46.52300 | 15.65355 | 3200 ft | 253 kts | 357° |
| 2026-04-24 16:37 | 46.54572 | 15.66115 | 4405 ft | 258 kts | 25° |
| 2026-04-24 16:38 | 46.56160 | 15.67214 | 5320 ft | 259 kts | 25° |
| 2026-04-24 16:38 | 46.57788 | 15.68366 | 6223 ft | 262 kts | 24° |
| 2026-04-24 16:38 | 46.59403 | 15.69505 | 7128 ft | 263 kts | 24° |
| 2026-04-24 16:38 | 46.61031 | 15.70657 | 8059 ft | 262 kts | 24° |
| 2026-04-24 16:39 | 46.62662 | 15.71810 | 8988 ft | 261 kts | 22° |
| 2026-04-24 16:39 | 46.64325 | 15.72674 | 9899 ft | 257 kts | 13° |
| 2026-04-24 16:39 | 46.66070 | 15.73376 | 10819 ft | 263 kts | 13° |
| 2026-04-24 16:39 | 46.67837 | 15.74095 | 11713 ft | 269 kts | 13° |
| 2026-04-24 16:40 | 46.69642 | 15.74836 | 12583 ft | 280 kts | 14° |
| 2026-04-24 16:40 | 46.71563 | 15.75628 | 13339 ft | 301 kts | 14° |
| 2026-04-24 16:40 | 46.73638 | 15.76489 | 14090 ft | 319 kts | 14° |
| 2026-04-24 16:40 | 46.75800 | 15.77392 | 14839 ft | 336 kts | 15° |
| 2026-04-24 16:41 | 46.78107 | 15.78361 | 15593 ft | 350 kts | 15° |
| 2026-04-24 16:41 | 46.80460 | 15.79353 | 16340 ft | 357 kts | 15° |
| 2026-04-24 16:41 | 46.82845 | 15.80362 | 17104 ft | 362 kts | 16° |
| 2026-04-24 16:41 | 46.85285 | 15.81396 | 17851 ft | 368 kts | 16° |
| 2026-04-24 16:42 | 46.87732 | 15.82436 | 18612 ft | 374 kts | 16° |
| 2026-04-24 16:42 | 46.90254 | 15.83509 | 19377 ft | 380 kts | 16° |
| 2026-04-24 16:42 | 46.92807 | 15.84597 | 19868 ft | 389 kts | 16° |
| 2026-04-24 16:42 | 46.95423 | 15.85714 | 20032 ft | 391 kts | 16° |
| 2026-04-24 16:43 | 46.98022 | 15.86826 | 20041 ft | 390 kts | 16° |
| 2026-04-24 16:43 | 47.00637 | 15.87947 | 20034 ft | 388 kts | 16° |
| 2026-04-24 16:43 | 47.03229 | 15.89058 | 20036 ft | 387 kts | 16° |
| 2026-04-24 16:43 | 47.05785 | 15.90155 | 20036 ft | 386 kts | 16° |
| 2026-04-24 16:44 | 47.08387 | 15.91273 | 20036 ft | 387 kts | 16° |
| 2026-04-24 16:44 | 47.10985 | 15.92392 | 20035 ft | 386 kts | 16° |
| 2026-04-24 16:44 | 47.13551 | 15.93497 | 20040 ft | 386 kts | 16° |
| 2026-04-24 16:44 | 47.16165 | 15.94625 | 19813 ft | 388 kts | 16° |
| 2026-04-24 16:45 | 47.18731 | 15.95733 | 19382 ft | 385 kts | 16° |
| 2026-04-24 16:45 | 47.21302 | 15.96845 | 18943 ft | 380 kts | 16° |
| 2026-04-24 16:45 | 47.23802 | 15.97927 | 18509 ft | 377 kts | 16° |
| 2026-04-24 16:45 | 47.26329 | 15.99022 | 18062 ft | 373 kts | 16° |
| 2026-04-24 16:46 | 47.28797 | 16.00093 | 17629 ft | 371 kts | 15° |
| 2026-04-24 16:46 | 47.31243 | 16.01155 | 17188 ft | 367 kts | 15° |
| 2026-04-24 16:46 | 47.33701 | 16.02224 | 16748 ft | 365 kts | 15° |
| 2026-04-24 16:46 | 47.36111 | 16.03275 | 16321 ft | 362 kts | 16° |
| 2026-04-24 16:47 | 47.38500 | 16.04419 | 15888 ft | 359 kts | 17° |
| 2026-04-24 16:47 | 47.40842 | 16.05577 | 15466 ft | 356 kts | 17° |
| 2026-04-24 16:47 | 47.43160 | 16.06722 | 15045 ft | 353 kts | 17° |
| 2026-04-24 16:47 | 47.45493 | 16.07875 | 14610 ft | 350 kts | 17° |
| 2026-04-24 16:48 | 47.47789 | 16.09008 | 14206 ft | 347 kts | 17° |
| 2026-04-24 16:48 | 47.50065 | 16.10139 | 13794 ft | 344 kts | 17° |
| 2026-04-24 16:48 | 47.52188 | 16.11666 | 13415 ft | 341 kts | 32° |
| 2026-04-24 16:48 | 47.53859 | 16.14109 | 13086 ft | 341 kts | 50° |
| 2026-04-24 16:49 | 47.55089 | 16.17072 | 12758 ft | 337 kts | 55° |
| 2026-04-24 16:49 | 47.56253 | 16.20041 | 12431 ft | 330 kts | 55° |
| 2026-04-24 16:49 | 47.57403 | 16.22959 | 12106 ft | 325 kts | 55° |
| 2026-04-24 16:49 | 47.58520 | 16.25795 | 11782 ft | 319 kts | 55° |
| 2026-04-24 16:50 | 47.59267 | 16.27694 | 11550 ft | 315 kts | 55° |
| 2026-04-24 16:50 | 47.60708 | 16.31359 | 11129 ft | 306 kts | 54° |
| 2026-04-24 16:50 | 47.61772 | 16.34070 | 10800 ft | 300 kts | 54° |
| 2026-04-24 16:50 | 47.62805 | 16.36702 | 10483 ft | 294 kts | 54° |
| 2026-04-24 16:51 | 47.63817 | 16.39281 | 10170 ft | 289 kts | 54° |
| 2026-04-24 16:51 | 47.64821 | 16.41840 | 9847 ft | 288 kts | 54° |
| 2026-04-24 16:51 | 47.65834 | 16.44424 | 9515 ft | 287 kts | 54° |
| 2026-04-24 16:51 | 47.66829 | 16.46963 | 9188 ft | 286 kts | 54° |
| 2026-04-24 16:52 | 47.67831 | 16.49523 | 8862 ft | 284 kts | 54° |
| 2026-04-24 16:52 | 47.68801 | 16.52008 | 8551 ft | 278 kts | 54° |
| 2026-04-24 16:52 | 47.69764 | 16.54476 | 8223 ft | 273 kts | 54° |
| 2026-04-24 16:52 | 47.70703 | 16.56885 | 7901 ft | 269 kts | 54° |
| 2026-04-24 16:53 | 47.71636 | 16.59280 | 7581 ft | 264 kts | 54° |
| 2026-04-24 16:53 | 47.72545 | 16.61602 | 7257 ft | 260 kts | 52° |
| 2026-04-24 16:53 | 47.73746 | 16.63503 | 6935 ft | 246 kts | 26° |
| 2026-04-24 16:53 | 47.75303 | 16.64321 | 6585 ft | 236 kts | 2° |
| 2026-04-24 16:54 | 47.76904 | 16.64486 | 6317 ft | 231 kts | 358° |
| 2026-04-24 16:54 | 47.78524 | 16.64625 | 6037 ft | 234 kts | 359° |
| 2026-04-24 16:54 | 47.80137 | 16.64768 | 5778 ft | 235 kts | 360° |
| 2026-04-24 16:54 | 47.81770 | 16.64913 | 5508 ft | 234 kts | 359° |
| 2026-04-24 16:55 | 47.83320 | 16.65052 | 5261 ft | 233 kts | 360° |
| 2026-04-24 16:55 | 47.84944 | 16.65196 | 4988 ft | 232 kts | 360° |
| 2026-04-24 16:55 | 47.86539 | 16.65339 | 4738 ft | 231 kts | 360° |
| 2026-04-24 16:55 | 47.88133 | 16.65480 | 4476 ft | 231 kts | 360° |
| 2026-04-24 16:56 | 47.89743 | 16.65623 | 4219 ft | 231 kts | 359° |
| 2026-04-24 16:56 | 47.91354 | 16.65767 | 3958 ft | 231 kts | 359° |
| 2026-04-24 16:56 | 47.92947 | 16.65817 | 3693 ft | 227 kts | 350° |
| 2026-04-24 16:56 | 47.94461 | 16.65266 | 3442 ft | 221 kts | 341° |
| 2026-04-24 16:57 | 47.95908 | 16.64607 | 3163 ft | 216 kts | 342° |
| 2026-04-24 16:57 | 47.97328 | 16.64003 | 2900 ft | 208 kts | 342° |
| 2026-04-24 16:57 | 47.98683 | 16.63431 | 2628 ft | 195 kts | 341° |
| 2026-04-24 16:57 | 47.99907 | 16.62918 | 2360 ft | 171 kts | 341° |
| 2026-04-24 16:58 | 48.00978 | 16.62469 | 2180 ft | 152 kts | 341° |
| 2026-04-24 16:58 | 48.02001 | 16.62034 | 1987 ft | 152 kts | 340° |
| 2026-04-24 16:58 | 48.03017 | 16.61602 | 1781 ft | 150 kts | 342° |
| 2026-04-24 16:58 | 48.03966 | 16.61206 | 1629 ft | 133 kts | 341° |
| 2026-04-24 16:59 | 48.04827 | 16.60845 | 1436 ft | 125 kts | 340° |
| 2026-04-24 16:59 | 48.05644 | 16.60502 | 1270 ft | 121 kts | 338° |
| 2026-04-24 16:59 | 48.07295 | 16.59807 | 923 ft | 125 kts | 340° |
| 2026-04-24 17:00 | 48.08139 | 16.59438 | 787 ft | 124 kts | 341° |
| 2026-04-24 17:00 | 48.09764 | 16.58753 | 608 ft | 99 kts | 343° |
| 2026-04-24 17:00 | 48.10256 | 16.58546 | 607 ft | 44 kts | 342° |
| 2026-04-24 17:01 | 48.10489 | 16.58189 | 607 ft | 15 kts | 311° |
| 2026-04-24 17:01 | 48.10598 | 16.58120 | 607 ft | 18 kts | 344° |
| 2026-04-24 17:02 | 48.10830 | 16.58023 | 607 ft | 23 kts | 344° |
| 2026-04-24 17:02 | 48.11014 | 16.57845 | 607 ft | 25 kts | 311° |
| 2026-04-24 17:02 | 48.11099 | 16.57610 | 607 ft | 28 kts | 296° |
| 2026-04-24 17:02 | 48.11197 | 16.57310 | 607 ft | 33 kts | 295° |
| 2026-04-24 17:03 | 48.11401 | 16.56679 | 607 ft | 33 kts | 297° |
| 2026-04-24 17:03 | 48.11506 | 16.56362 | 607 ft | 34 kts | 296° |
| 2026-04-24 17:03 | 48.11610 | 16.56041 | 607 ft | 34 kts | 295° |
| 2026-04-24 17:04 | 48.11715 | 16.55723 | 607 ft | 34 kts | 296° |
| 2026-04-24 17:04 | 48.11927 | 16.55071 | 607 ft | 34 kts | 296° |
| 2026-04-24 17:04 | 48.12033 | 16.54746 | 607 ft | 34 kts | 296° |
| 2026-04-24 17:05 | 48.12139 | 16.54417 | 607 ft | 35 kts | 296° |
| 2026-04-24 17:05 | 48.12246 | 16.54092 | 607 ft | 35 kts | 297° |
| 2026-04-24 17:05 | 48.12394 | 16.53641 | 607 ft | 9 kts | 310° |
| 2026-04-24 17:06 | 48.12454 | 16.53637 | 607 ft | 10 kts | 1° |
| 2026-04-24 17:06 | 48.12621 | 16.53703 | 607 ft | 15 kts | 19° |
| 2026-04-24 17:06 | 48.12674 | 16.53740 | 607 ft | 3 kts | 19° |
| 2026-04-24 17:07 | 48.12688 | 16.53721 | 607 ft | 5 kts | 293° |
| 2026-04-24 17:07 | 48.12692 | 16.53710 | 607 ft | 0 kts | 295° |